DYess Air Force Base Abilene US
ICAO: KDYS
IATA: DYS
Category: Large
Scheduled Services: No

Elevation: 1789 ft
TransAlt. 18000 ft.

Airport Communications:
ABILENE APP/DEP:125
ATIS:38.57
GND:118.35
PMSV METRO:38.325
ACC COMMAND POST:31.1
AMCC:34.94
PTD:139.3
TWR:133

KDYS Zoom In..

If you have problems with the map follow the link
https://www.worldairports.se/pages/airport.php?
ICAO=KDYS

Runways:

(A) RW 16 length 13500 ft width 300 ft
ILS 109.90 / hdg 161

(B) RW 34 length 13500 ft width 300 ft
ILS 109.90 / hdg 341

Location; KDYS
Day. 21 / Time. 17.56 Zulu
* Altimeter: 30.35
* Temperature: 18° c. 64.4°f.
* Wind from: 130° Speed 04 kn.
Dewpoint: 05° c.
Visibility: 10 Statute Miles.
Clouds: Clear (automated report).

KDYS 211756Z AUTO 13004KT 10SM CLR 18/05 A3035 RMK AO2 SLP262 T01840052 10186 20064 57016


Wind From 130°
Speed 04 kn.

 
 
jpsmedia.com for Web Design worldairports.se 2018   terms of use